WLF88S FDSK-FXMM
Flight info
| Callsign | WLF88S |
|---|---|
| Flight time | 1h 38m |
| Altitude | 9000 |
| Route | VSK DCT WRV DCT MZV |
| Aircraft | AEST/L-SDFGRY/S |
Departure
| Time | 2026-04-30 08:59 |
|---|---|
| Airport | King Mswati III International Airport (FDSK) |
Arrival
| Time | 2026-04-30 10:37 |
|---|---|
| Airport | Moshoeshoe I International Airport (FXMM) |
| Time | Latitude | Longitude | Altitude | Speed | Heading |
|---|---|---|---|---|---|
| 2026-04-30 08:46 | -26.34950 | 31.72141 | 1083 ft | 0 kts | 360° |
| 2026-04-30 08:56 | -26.34935 | 31.72133 | 1083 ft | 8 kts | 317° |
| 2026-04-30 08:56 | -26.34925 | 31.72046 | 1083 ft | 14 kts | 270° |
| 2026-04-30 08:56 | -26.34959 | 31.71972 | 1083 ft | 14 kts | 184° |
| 2026-04-30 08:56 | -26.34992 | 31.71871 | 1083 ft | 18 kts | 266° |
| 2026-04-30 08:57 | -26.34993 | 31.71838 | 1082 ft | 2 kts | 269° |
| 2026-04-30 08:57 | -26.34994 | 31.71786 | 1082 ft | 10 kts | 269° |
| 2026-04-30 08:57 | -26.35013 | 31.71706 | 1082 ft | 6 kts | 189° |
| 2026-04-30 08:57 | -26.35017 | 31.71706 | 1082 ft | 0 kts | 178° |
| 2026-04-30 08:58 | -26.35053 | 31.71706 | 1082 ft | 33 kts | 180° |
| 2026-04-30 08:58 | -26.35587 | 31.71721 | 1085 ft | 109 kts | 178° |
| 2026-04-30 08:58 | -26.36423 | 31.71684 | 1231 ft | 125 kts | 177° |
| 2026-04-30 08:58 | -26.37311 | 31.71637 | 1544 ft | 135 kts | 177° |
| 2026-04-30 08:59 | -26.38262 | 31.71496 | 1992 ft | 147 kts | 199° |
| 2026-04-30 08:59 | -26.39032 | 31.70703 | 2432 ft | 152 kts | 247° |
| 2026-04-30 08:59 | -26.39437 | 31.69713 | 3037 ft | 135 kts | 249° |
| 2026-04-30 08:59 | -26.39886 | 31.68749 | 3348 ft | 149 kts | 246° |
| 2026-04-30 09:00 | -26.40569 | 31.67715 | 3466 ft | 175 kts | 239° |
| 2026-04-30 09:00 | -26.41054 | 31.66478 | 3752 ft | 175 kts | 259° |
| 2026-04-30 09:00 | -26.41509 | 31.65212 | 3976 ft | 177 kts | 246° |
| 2026-04-30 09:00 | -26.42172 | 31.64040 | 4223 ft | 179 kts | 243° |
| 2026-04-30 09:01 | -26.42822 | 31.62859 | 4528 ft | 179 kts | 245° |
| 2026-04-30 09:01 | -26.43466 | 31.61659 | 4816 ft | 180 kts | 245° |
| 2026-04-30 09:01 | -26.44107 | 31.60466 | 5085 ft | 178 kts | 245° |
| 2026-04-30 09:01 | -26.44722 | 31.59280 | 5336 ft | 176 kts | 245° |
| 2026-04-30 09:02 | -26.45967 | 31.56901 | 5844 ft | 177 kts | 246° |
| 2026-04-30 09:02 | -26.46585 | 31.55727 | 6091 ft | 174 kts | 245° |
| 2026-04-30 09:02 | -26.47187 | 31.54567 | 6333 ft | 173 kts | 245° |
| 2026-04-30 09:03 | -26.47793 | 31.53422 | 6595 ft | 170 kts | 245° |
| 2026-04-30 09:03 | -26.48397 | 31.52279 | 6824 ft | 172 kts | 245° |
| 2026-04-30 09:03 | -26.49002 | 31.51122 | 7059 ft | 173 kts | 244° |
| 2026-04-30 09:03 | -26.49608 | 31.49958 | 7295 ft | 174 kts | 244° |
| 2026-04-30 09:04 | -26.50227 | 31.48795 | 7543 ft | 174 kts | 244° |
| 2026-04-30 09:04 | -26.50852 | 31.47639 | 7777 ft | 174 kts | 243° |
| 2026-04-30 09:04 | -26.51482 | 31.46487 | 8010 ft | 174 kts | 243° |
| 2026-04-30 09:04 | -26.52113 | 31.45339 | 8243 ft | 174 kts | 243° |
| 2026-04-30 09:05 | -26.52751 | 31.44189 | 8466 ft | 174 kts | 243° |
| 2026-04-30 09:05 | -26.53392 | 31.43041 | 8688 ft | 174 kts | 244° |
| 2026-04-30 09:05 | -26.54033 | 31.41888 | 8908 ft | 175 kts | 244° |
| 2026-04-30 09:05 | -26.54668 | 31.40733 | 9106 ft | 175 kts | 244° |
| 2026-04-30 09:06 | -26.55312 | 31.39547 | 9136 ft | 184 kts | 244° |
| 2026-04-30 09:06 | -26.55989 | 31.38281 | 9092 ft | 195 kts | 244° |
| 2026-04-30 09:06 | -26.56693 | 31.36947 | 9036 ft | 202 kts | 244° |
| 2026-04-30 09:06 | -26.57397 | 31.35604 | 9019 ft | 194 kts | 244° |
| 2026-04-30 09:07 | -26.58087 | 31.34306 | 9020 ft | 196 kts | 244° |
| 2026-04-30 09:07 | -26.58789 | 31.32988 | 9038 ft | 198 kts | 244° |
| 2026-04-30 09:07 | -26.59495 | 31.31660 | 9045 ft | 200 kts | 244° |
| 2026-04-30 09:07 | -26.60212 | 31.30313 | 9042 ft | 203 kts | 244° |
| 2026-04-30 09:08 | -26.60937 | 31.28955 | 9036 ft | 204 kts | 244° |
| 2026-04-30 09:08 | -26.61659 | 31.27608 | 9032 ft | 205 kts | 244° |
| 2026-04-30 09:08 | -26.62405 | 31.26221 | 9034 ft | 206 kts | 244° |
| 2026-04-30 09:08 | -26.63132 | 31.24865 | 9020 ft | 207 kts | 244° |
| 2026-04-30 09:09 | -26.63877 | 31.23482 | 9028 ft | 208 kts | 244° |
| 2026-04-30 09:09 | -26.64623 | 31.22109 | 9030 ft | 205 kts | 244° |
| 2026-04-30 09:09 | -26.65369 | 31.20760 | 9026 ft | 204 kts | 244° |
| 2026-04-30 09:09 | -26.66115 | 31.19415 | 9029 ft | 204 kts | 244° |
| 2026-04-30 09:10 | -26.66858 | 31.18055 | 9026 ft | 205 kts | 244° |
| 2026-04-30 09:10 | -26.67596 | 31.16693 | 9017 ft | 204 kts | 244° |
| 2026-04-30 09:10 | -26.68328 | 31.15335 | 9014 ft | 203 kts | 244° |
| 2026-04-30 09:10 | -26.69054 | 31.13985 | 9020 ft | 202 kts | 244° |
| 2026-04-30 09:11 | -26.69777 | 31.12645 | 9014 ft | 201 kts | 245° |
| 2026-04-30 09:11 | -26.70499 | 31.11307 | 9015 ft | 202 kts | 245° |
| 2026-04-30 09:11 | -26.71219 | 31.09962 | 9013 ft | 201 kts | 245° |
| 2026-04-30 09:11 | -26.71940 | 31.08617 | 9002 ft | 201 kts | 245° |
| 2026-04-30 09:12 | -26.72654 | 31.07269 | 9002 ft | 202 kts | 245° |
| 2026-04-30 09:12 | -26.73369 | 31.05911 | 8999 ft | 202 kts | 245° |
| 2026-04-30 09:12 | -26.74086 | 31.04560 | 9003 ft | 202 kts | 245° |
| 2026-04-30 09:12 | -26.74800 | 31.03211 | 9001 ft | 202 kts | 245° |
| 2026-04-30 09:13 | -26.75517 | 31.01853 | 9001 ft | 203 kts | 245° |
| 2026-04-30 09:13 | -26.76240 | 31.00492 | 9000 ft | 203 kts | 245° |
| 2026-04-30 09:13 | -26.76959 | 30.99139 | 9001 ft | 202 kts | 245° |
| 2026-04-30 09:13 | -26.77665 | 30.97803 | 8999 ft | 202 kts | 245° |
| 2026-04-30 09:14 | -26.78385 | 30.96452 | 8997 ft | 202 kts | 245° |
| 2026-04-30 09:14 | -26.79121 | 30.95091 | 8999 ft | 202 kts | 245° |
| 2026-04-30 09:14 | -26.79839 | 30.93740 | 9001 ft | 202 kts | 245° |
| 2026-04-30 09:14 | -26.80555 | 30.92376 | 8991 ft | 203 kts | 245° |
| 2026-04-30 09:15 | -26.81273 | 30.91014 | 8990 ft | 203 kts | 245° |
| 2026-04-30 09:15 | -26.81982 | 30.89673 | 8993 ft | 203 kts | 245° |
| 2026-04-30 09:15 | -26.82702 | 30.88311 | 8996 ft | 203 kts | 245° |
| 2026-04-30 09:15 | -26.83429 | 30.86953 | 8993 ft | 204 kts | 245° |
| 2026-04-30 09:16 | -26.84159 | 30.85588 | 8998 ft | 205 kts | 245° |
| 2026-04-30 09:16 | -26.84887 | 30.84219 | 8998 ft | 205 kts | 244° |
| 2026-04-30 09:16 | -26.85619 | 30.82847 | 8988 ft | 206 kts | 244° |
| 2026-04-30 09:16 | -26.86355 | 30.81465 | 8986 ft | 206 kts | 244° |
| 2026-04-30 09:17 | -26.87090 | 30.80086 | 8998 ft | 206 kts | 244° |
| 2026-04-30 09:17 | -26.87827 | 30.78714 | 8985 ft | 205 kts | 244° |
| 2026-04-30 09:17 | -26.88558 | 30.77342 | 8980 ft | 206 kts | 244° |
| 2026-04-30 09:17 | -26.89288 | 30.75969 | 8996 ft | 206 kts | 244° |
| 2026-04-30 09:18 | -26.90026 | 30.74595 | 8990 ft | 205 kts | 244° |
| 2026-04-30 09:18 | -26.90759 | 30.73229 | 8984 ft | 205 kts | 244° |
| 2026-04-30 09:18 | -26.91494 | 30.71861 | 8991 ft | 205 kts | 244° |
| 2026-04-30 09:18 | -26.92235 | 30.70493 | 8990 ft | 206 kts | 244° |
| 2026-04-30 09:19 | -26.92978 | 30.69120 | 8992 ft | 206 kts | 244° |
| 2026-04-30 09:19 | -26.93469 | 30.68208 | 8981 ft | 207 kts | 244° |
| 2026-04-30 09:19 | -26.94212 | 30.66828 | 8987 ft | 206 kts | 244° |
| 2026-04-30 09:19 | -26.94955 | 30.65456 | 8982 ft | 205 kts | 244° |
| 2026-04-30 09:20 | -26.95694 | 30.64093 | 8984 ft | 205 kts | 244° |
| 2026-04-30 09:20 | -26.96435 | 30.62723 | 8990 ft | 205 kts | 244° |
| 2026-04-30 09:20 | -26.97175 | 30.61356 | 8987 ft | 205 kts | 244° |
| 2026-04-30 09:20 | -26.97908 | 30.59989 | 8988 ft | 204 kts | 244° |
| 2026-04-30 09:21 | -26.98636 | 30.58622 | 8985 ft | 203 kts | 244° |
| 2026-04-30 09:21 | -26.99370 | 30.57268 | 8997 ft | 204 kts | 244° |
| 2026-04-30 09:21 | -27.00105 | 30.55906 | 8980 ft | 204 kts | 244° |
| 2026-04-30 09:21 | -27.00835 | 30.54543 | 8981 ft | 203 kts | 244° |
| 2026-04-30 09:22 | -27.01566 | 30.53185 | 8998 ft | 204 kts | 244° |
| 2026-04-30 09:22 | -27.02300 | 30.51820 | 8984 ft | 206 kts | 244° |
| 2026-04-30 09:22 | -27.03037 | 30.50442 | 8987 ft | 206 kts | 245° |
| 2026-04-30 09:22 | -27.03769 | 30.49067 | 8989 ft | 205 kts | 244° |
| 2026-04-30 09:23 | -27.04494 | 30.47699 | 8986 ft | 204 kts | 245° |
| 2026-04-30 09:23 | -27.05210 | 30.46345 | 8995 ft | 204 kts | 245° |
| 2026-04-30 09:23 | -27.05935 | 30.44968 | 8994 ft | 205 kts | 245° |
| 2026-04-30 09:23 | -27.06665 | 30.43585 | 8991 ft | 206 kts | 245° |
| 2026-04-30 09:24 | -27.07397 | 30.42200 | 8980 ft | 206 kts | 245° |
| 2026-04-30 09:24 | -27.08123 | 30.40815 | 8993 ft | 205 kts | 245° |
| 2026-04-30 09:24 | -27.08848 | 30.39442 | 8997 ft | 205 kts | 245° |
| 2026-04-30 09:24 | -27.09578 | 30.38067 | 8996 ft | 206 kts | 245° |
| 2026-04-30 09:25 | -27.10325 | 30.36660 | 8993 ft | 207 kts | 245° |
| 2026-04-30 09:25 | -27.11050 | 30.35295 | 8997 ft | 205 kts | 245° |
| 2026-04-30 09:25 | -27.11785 | 30.33919 | 8999 ft | 205 kts | 245° |
| 2026-04-30 09:25 | -27.12520 | 30.32555 | 8987 ft | 203 kts | 245° |
| 2026-04-30 09:26 | -27.13254 | 30.31210 | 8989 ft | 201 kts | 245° |
| 2026-04-30 09:26 | -27.13984 | 30.29873 | 8998 ft | 201 kts | 245° |
| 2026-04-30 09:26 | -27.14716 | 30.28527 | 8997 ft | 202 kts | 245° |
| 2026-04-30 09:26 | -27.15446 | 30.27184 | 8992 ft | 201 kts | 245° |
| 2026-04-30 09:27 | -27.16158 | 30.25830 | 8971 ft | 201 kts | 245° |
| 2026-04-30 09:27 | -27.16858 | 30.24498 | 9025 ft | 197 kts | 245° |
| 2026-04-30 09:27 | -27.17570 | 30.23177 | 9004 ft | 198 kts | 245° |
| 2026-04-30 09:27 | -27.18278 | 30.21855 | 9018 ft | 198 kts | 245° |
| 2026-04-30 09:28 | -27.18993 | 30.20517 | 9013 ft | 201 kts | 245° |
| 2026-04-30 09:28 | -27.19717 | 30.19158 | 8996 ft | 203 kts | 245° |
| 2026-04-30 09:28 | -27.20437 | 30.17800 | 8994 ft | 201 kts | 245° |
| 2026-04-30 09:28 | -27.21154 | 30.16460 | 8983 ft | 199 kts | 245° |
| 2026-04-30 09:29 | -27.21864 | 30.15138 | 9022 ft | 198 kts | 245° |
| 2026-04-30 09:29 | -27.22578 | 30.13806 | 9012 ft | 200 kts | 245° |
| 2026-04-30 09:29 | -27.23301 | 30.12461 | 8997 ft | 202 kts | 245° |
| 2026-04-30 09:29 | -27.24025 | 30.11108 | 8994 ft | 202 kts | 245° |
| 2026-04-30 09:30 | -27.24757 | 30.09764 | 8995 ft | 202 kts | 245° |
| 2026-04-30 09:30 | -27.25493 | 30.08419 | 9007 ft | 203 kts | 245° |
| 2026-04-30 09:30 | -27.26230 | 30.07060 | 9006 ft | 203 kts | 245° |
| 2026-04-30 09:30 | -27.26969 | 30.05709 | 9004 ft | 203 kts | 245° |
| 2026-04-30 09:31 | -27.27708 | 30.04358 | 9005 ft | 203 kts | 245° |
| 2026-04-30 09:31 | -27.28443 | 30.03008 | 9000 ft | 203 kts | 245° |
| 2026-04-30 09:31 | -27.29160 | 30.01658 | 9006 ft | 204 kts | 247° |
| 2026-04-30 09:31 | -27.29845 | 30.00256 | 9008 ft | 205 kts | 249° |
| 2026-04-30 09:32 | -27.30476 | 29.98823 | 9002 ft | 204 kts | 251° |
| 2026-04-30 09:32 | -27.31054 | 29.97375 | 8998 ft | 203 kts | 253° |
| 2026-04-30 09:32 | -27.31712 | 29.95968 | 8989 ft | 204 kts | 243° |
| 2026-04-30 09:32 | -27.32487 | 29.94634 | 9011 ft | 204 kts | 244° |
| 2026-04-30 09:33 | -27.33215 | 29.93270 | 9006 ft | 203 kts | 246° |
| 2026-04-30 09:33 | -27.33920 | 29.91890 | 9005 ft | 204 kts | 247° |
| 2026-04-30 09:33 | -27.34619 | 29.90500 | 9005 ft | 204 kts | 247° |
| 2026-04-30 09:33 | -27.35305 | 29.89111 | 9001 ft | 201 kts | 248° |
| 2026-04-30 09:34 | -27.35979 | 29.87733 | 9010 ft | 201 kts | 247° |
| 2026-04-30 09:34 | -27.36665 | 29.86353 | 9012 ft | 203 kts | 247° |
| 2026-04-30 09:34 | -27.37356 | 29.84971 | 9011 ft | 202 kts | 247° |
| 2026-04-30 09:34 | -27.38040 | 29.83580 | 9007 ft | 204 kts | 247° |
| 2026-04-30 09:35 | -27.38737 | 29.82190 | 9026 ft | 204 kts | 246° |
| 2026-04-30 09:35 | -27.39460 | 29.80808 | 9014 ft | 204 kts | 246° |
| 2026-04-30 09:35 | -27.40172 | 29.79435 | 8998 ft | 203 kts | 247° |
| 2026-04-30 09:35 | -27.40877 | 29.78070 | 9013 ft | 201 kts | 247° |
| 2026-04-30 09:36 | -27.41585 | 29.76706 | 9008 ft | 200 kts | 247° |
| 2026-04-30 09:36 | -27.42271 | 29.75374 | 9011 ft | 199 kts | 247° |
| 2026-04-30 09:36 | -27.42982 | 29.74006 | 9014 ft | 200 kts | 247° |
| 2026-04-30 09:36 | -27.43670 | 29.72656 | 9013 ft | 203 kts | 247° |
| 2026-04-30 09:37 | -27.44372 | 29.71274 | 9015 ft | 204 kts | 247° |
| 2026-04-30 09:37 | -27.45086 | 29.69893 | 9009 ft | 203 kts | 247° |
| 2026-04-30 09:37 | -27.45786 | 29.68536 | 9012 ft | 200 kts | 247° |
| 2026-04-30 09:37 | -27.46484 | 29.67172 | 9021 ft | 201 kts | 247° |
| 2026-04-30 09:38 | -27.47190 | 29.65810 | 9018 ft | 202 kts | 247° |
| 2026-04-30 09:38 | -27.47900 | 29.64456 | 9017 ft | 199 kts | 247° |
| 2026-04-30 09:38 | -27.48605 | 29.63112 | 9036 ft | 201 kts | 247° |
| 2026-04-30 09:38 | -27.49320 | 29.61743 | 9012 ft | 204 kts | 247° |
| 2026-04-30 09:39 | -27.50028 | 29.60360 | 9001 ft | 204 kts | 247° |
| 2026-04-30 09:39 | -27.50733 | 29.58982 | 9021 ft | 202 kts | 247° |
| 2026-04-30 09:39 | -27.51442 | 29.57622 | 9035 ft | 200 kts | 247° |
| 2026-04-30 09:39 | -27.52144 | 29.56271 | 9030 ft | 200 kts | 248° |
| 2026-04-30 09:40 | -27.52845 | 29.54916 | 9022 ft | 201 kts | 248° |
| 2026-04-30 09:40 | -27.53544 | 29.53555 | 9032 ft | 200 kts | 248° |
| 2026-04-30 09:40 | -27.54236 | 29.52195 | 9025 ft | 201 kts | 248° |
| 2026-04-30 09:40 | -27.54935 | 29.50830 | 9028 ft | 201 kts | 247° |
| 2026-04-30 09:41 | -27.55637 | 29.49486 | 9025 ft | 202 kts | 248° |
| 2026-04-30 09:41 | -27.56353 | 29.48101 | 9030 ft | 203 kts | 248° |
| 2026-04-30 09:41 | -27.57051 | 29.46723 | 9030 ft | 201 kts | 248° |
| 2026-04-30 09:41 | -27.57747 | 29.45362 | 9050 ft | 201 kts | 247° |
| 2026-04-30 09:42 | -27.58461 | 29.43991 | 9038 ft | 204 kts | 247° |
| 2026-04-30 09:42 | -27.59177 | 29.42614 | 9029 ft | 203 kts | 247° |
| 2026-04-30 09:42 | -27.59881 | 29.41237 | 9033 ft | 202 kts | 248° |
| 2026-04-30 09:42 | -27.60590 | 29.39868 | 9033 ft | 203 kts | 247° |
| 2026-04-30 09:43 | -27.61292 | 29.38508 | 9026 ft | 203 kts | 247° |
| 2026-04-30 09:43 | -27.61995 | 29.37137 | 9025 ft | 202 kts | 248° |
| 2026-04-30 09:43 | -27.62720 | 29.35754 | 9034 ft | 201 kts | 248° |
| 2026-04-30 09:43 | -27.63417 | 29.34418 | 9035 ft | 201 kts | 248° |
| 2026-04-30 09:44 | -27.64109 | 29.33055 | 9030 ft | 200 kts | 248° |
| 2026-04-30 09:44 | -27.64797 | 29.31693 | 9032 ft | 200 kts | 248° |
| 2026-04-30 09:44 | -27.65491 | 29.30329 | 9031 ft | 200 kts | 247° |
| 2026-04-30 09:44 | -27.66197 | 29.28971 | 9035 ft | 201 kts | 248° |
| 2026-04-30 09:45 | -27.66897 | 29.27607 | 9033 ft | 200 kts | 248° |
| 2026-04-30 09:45 | -27.67590 | 29.26239 | 9035 ft | 202 kts | 247° |
| 2026-04-30 09:45 | -27.68290 | 29.24858 | 9022 ft | 204 kts | 247° |
| 2026-04-30 09:45 | -27.68999 | 29.23480 | 9041 ft | 203 kts | 247° |
| 2026-04-30 09:46 | -27.69709 | 29.22109 | 9052 ft | 202 kts | 247° |
| 2026-04-30 09:46 | -27.70414 | 29.20737 | 9035 ft | 202 kts | 247° |
| 2026-04-30 09:46 | -27.71117 | 29.19362 | 9022 ft | 201 kts | 247° |
| 2026-04-30 09:46 | -27.71817 | 29.17987 | 9025 ft | 203 kts | 247° |
| 2026-04-30 09:47 | -27.72533 | 29.16604 | 9038 ft | 204 kts | 247° |
| 2026-04-30 09:47 | -27.73237 | 29.15225 | 9025 ft | 202 kts | 247° |
| 2026-04-30 09:47 | -27.73949 | 29.13855 | 9024 ft | 202 kts | 247° |
| 2026-04-30 09:47 | -27.74660 | 29.12478 | 9019 ft | 203 kts | 247° |
| 2026-04-30 09:48 | -27.75360 | 29.11113 | 9026 ft | 203 kts | 247° |
| 2026-04-30 09:48 | -27.76064 | 29.09745 | 9026 ft | 201 kts | 247° |
| 2026-04-30 09:48 | -27.76768 | 29.08391 | 9033 ft | 200 kts | 248° |
| 2026-04-30 09:48 | -27.77463 | 29.07038 | 9027 ft | 199 kts | 249° |
| 2026-04-30 09:49 | -27.78186 | 29.05702 | 9018 ft | 200 kts | 242° |
| 2026-04-30 09:49 | -27.79098 | 29.04507 | 9029 ft | 202 kts | 233° |
| 2026-04-30 09:49 | -27.80170 | 29.03467 | 9050 ft | 205 kts | 226° |
| 2026-04-30 09:49 | -27.81346 | 29.02527 | 9043 ft | 208 kts | 223° |
| 2026-04-30 09:50 | -27.82558 | 29.01611 | 9034 ft | 211 kts | 222° |
| 2026-04-30 09:50 | -27.83804 | 29.00735 | 9002 ft | 213 kts | 214° |
| 2026-04-30 09:50 | -27.85188 | 29.00096 | 9028 ft | 216 kts | 211° |
| 2026-04-30 09:50 | -27.86548 | 28.99374 | 9043 ft | 216 kts | 217° |
| 2026-04-30 09:51 | -27.87834 | 28.98492 | 9020 ft | 216 kts | 223° |
| 2026-04-30 09:51 | -27.89073 | 28.97538 | 9012 ft | 215 kts | 223° |
| 2026-04-30 09:51 | -27.90262 | 28.96534 | 9021 ft | 212 kts | 227° |
| 2026-04-30 09:51 | -27.91403 | 28.95479 | 9021 ft | 212 kts | 228° |
| 2026-04-30 09:52 | -27.92538 | 28.94404 | 9029 ft | 213 kts | 229° |
| 2026-04-30 09:52 | -27.93671 | 28.93323 | 9033 ft | 212 kts | 229° |
| 2026-04-30 09:52 | -27.94794 | 28.92244 | 9036 ft | 213 kts | 229° |
| 2026-04-30 09:52 | -27.95932 | 28.91165 | 9031 ft | 214 kts | 228° |
| 2026-04-30 09:53 | -27.97081 | 28.90096 | 9036 ft | 214 kts | 228° |
| 2026-04-30 09:53 | -27.98233 | 28.89038 | 9031 ft | 213 kts | 227° |
| 2026-04-30 09:53 | -27.99389 | 28.87989 | 9037 ft | 213 kts | 227° |
| 2026-04-30 09:53 | -28.00547 | 28.86949 | 9040 ft | 213 kts | 227° |
| 2026-04-30 09:54 | -28.01714 | 28.85906 | 9032 ft | 213 kts | 226° |
| 2026-04-30 09:54 | -28.02865 | 28.84883 | 9022 ft | 213 kts | 226° |
| 2026-04-30 09:54 | -28.04036 | 28.83852 | 9032 ft | 213 kts | 226° |
| 2026-04-30 09:54 | -28.05212 | 28.82823 | 9032 ft | 214 kts | 226° |
| 2026-04-30 09:55 | -28.06386 | 28.81795 | 9038 ft | 213 kts | 226° |
| 2026-04-30 09:55 | -28.07558 | 28.80762 | 9026 ft | 213 kts | 226° |
| 2026-04-30 09:55 | -28.08726 | 28.79735 | 9024 ft | 213 kts | 226° |
| 2026-04-30 09:55 | -28.09899 | 28.78711 | 9035 ft | 214 kts | 226° |
| 2026-04-30 09:56 | -28.11083 | 28.77676 | 9038 ft | 215 kts | 226° |
| 2026-04-30 09:56 | -28.12267 | 28.76643 | 9035 ft | 215 kts | 226° |
| 2026-04-30 09:56 | -28.13452 | 28.75617 | 9032 ft | 214 kts | 226° |
| 2026-04-30 09:56 | -28.14628 | 28.74588 | 9040 ft | 213 kts | 226° |
| 2026-04-30 09:57 | -28.15803 | 28.73559 | 9039 ft | 215 kts | 226° |
| 2026-04-30 09:57 | -28.16992 | 28.72522 | 9043 ft | 215 kts | 226° |
| 2026-04-30 09:57 | -28.18178 | 28.71488 | 9034 ft | 215 kts | 226° |
| 2026-04-30 09:57 | -28.19357 | 28.70454 | 9032 ft | 214 kts | 226° |
| 2026-04-30 09:58 | -28.20530 | 28.69425 | 9038 ft | 213 kts | 226° |
| 2026-04-30 09:58 | -28.21704 | 28.68399 | 9045 ft | 213 kts | 226° |
| 2026-04-30 09:58 | -28.22879 | 28.67365 | 9036 ft | 214 kts | 226° |
| 2026-04-30 09:58 | -28.24050 | 28.66326 | 9034 ft | 214 kts | 226° |
| 2026-04-30 09:59 | -28.26426 | 28.64253 | 9046 ft | 216 kts | 226° |
| 2026-04-30 09:59 | -28.28811 | 28.62166 | 9041 ft | 217 kts | 226° |
| 2026-04-30 10:00 | -28.31189 | 28.60034 | 9048 ft | 219 kts | 226° |
| 2026-04-30 10:00 | -28.32369 | 28.58950 | 9049 ft | 217 kts | 225° |
| 2026-04-30 10:01 | -28.34745 | 28.56843 | 9040 ft | 217 kts | 224° |
| 2026-04-30 10:01 | -28.35934 | 28.55796 | 9046 ft | 216 kts | 224° |
| 2026-04-30 10:01 | -28.37130 | 28.54762 | 9048 ft | 217 kts | 223° |
| 2026-04-30 10:02 | -28.39542 | 28.52709 | 9046 ft | 216 kts | 224° |
| 2026-04-30 10:02 | -28.40738 | 28.51672 | 9055 ft | 216 kts | 224° |
| 2026-04-30 10:02 | -28.41933 | 28.50632 | 9055 ft | 217 kts | 224° |
| 2026-04-30 10:02 | -28.43124 | 28.49585 | 9060 ft | 216 kts | 224° |
| 2026-04-30 10:03 | -28.44294 | 28.48541 | 9060 ft | 217 kts | 224° |
| 2026-04-30 10:03 | -28.45504 | 28.47475 | 9063 ft | 218 kts | 224° |
| 2026-04-30 10:03 | -28.46704 | 28.46423 | 9061 ft | 217 kts | 224° |
| 2026-04-30 10:03 | -28.47881 | 28.45368 | 9021 ft | 219 kts | 224° |
| 2026-04-30 10:04 | -28.49085 | 28.44289 | 8993 ft | 222 kts | 224° |
| 2026-04-30 10:04 | -28.50313 | 28.43201 | 8881 ft | 226 kts | 224° |
| 2026-04-30 10:04 | -28.51555 | 28.42085 | 8758 ft | 228 kts | 224° |
| 2026-04-30 10:04 | -28.52806 | 28.40977 | 8647 ft | 228 kts | 224° |
| 2026-04-30 10:05 | -28.54067 | 28.39872 | 8478 ft | 231 kts | 223° |
| 2026-04-30 10:05 | -28.55351 | 28.38750 | 8333 ft | 233 kts | 224° |
| 2026-04-30 10:05 | -28.56622 | 28.37611 | 8230 ft | 233 kts | 223° |
| 2026-04-30 10:05 | -28.57894 | 28.36457 | 8136 ft | 234 kts | 223° |
| 2026-04-30 10:06 | -28.59188 | 28.35331 | 8023 ft | 235 kts | 223° |
| 2026-04-30 10:06 | -28.60483 | 28.34199 | 7931 ft | 235 kts | 223° |
| 2026-04-30 10:06 | -28.61777 | 28.33062 | 7837 ft | 234 kts | 223° |
| 2026-04-30 10:06 | -28.62631 | 28.32305 | 7775 ft | 234 kts | 223° |
| 2026-04-30 10:07 | -28.63918 | 28.31169 | 7684 ft | 235 kts | 223° |
| 2026-04-30 10:07 | -28.65209 | 28.30026 | 7570 ft | 235 kts | 223° |
| 2026-04-30 10:07 | -28.66490 | 28.28886 | 7476 ft | 234 kts | 223° |
| 2026-04-30 10:07 | -28.67773 | 28.27743 | 7390 ft | 234 kts | 222° |
| 2026-04-30 10:08 | -28.69054 | 28.26595 | 7279 ft | 236 kts | 222° |
| 2026-04-30 10:08 | -28.70351 | 28.25450 | 7173 ft | 235 kts | 222° |
| 2026-04-30 10:08 | -28.71637 | 28.24303 | 7075 ft | 235 kts | 222° |
| 2026-04-30 10:08 | -28.72921 | 28.23155 | 6969 ft | 234 kts | 221° |
| 2026-04-30 10:09 | -28.74204 | 28.22001 | 6872 ft | 235 kts | 221° |
| 2026-04-30 10:09 | -28.75447 | 28.20807 | 6864 ft | 230 kts | 227° |
| 2026-04-30 10:09 | -28.76391 | 28.19393 | 6945 ft | 222 kts | 243° |
| 2026-04-30 10:09 | -28.77121 | 28.17850 | 6938 ft | 220 kts | 246° |
| 2026-04-30 10:10 | -28.77799 | 28.16291 | 6899 ft | 220 kts | 249° |
| 2026-04-30 10:10 | -28.78449 | 28.14705 | 6740 ft | 227 kts | 248° |
| 2026-04-30 10:10 | -28.79180 | 28.13105 | 6651 ft | 228 kts | 244° |
| 2026-04-30 10:10 | -28.79953 | 28.11495 | 6440 ft | 234 kts | 243° |
| 2026-04-30 10:11 | -28.80888 | 28.10006 | 6417 ft | 230 kts | 230° |
| 2026-04-30 10:11 | -28.82115 | 28.08823 | 6257 ft | 231 kts | 217° |
| 2026-04-30 10:11 | -28.83433 | 28.07802 | 6280 ft | 226 kts | 212° |
| 2026-04-30 10:11 | -28.84754 | 28.06877 | 6385 ft | 222 kts | 213° |
| 2026-04-30 10:12 | -28.86097 | 28.05987 | 6471 ft | 224 kts | 212° |
| 2026-04-30 10:12 | -28.87384 | 28.05017 | 6611 ft | 220 kts | 221° |
| 2026-04-30 10:12 | -28.88805 | 28.04296 | 6461 ft | 230 kts | 195° |
| 2026-04-30 10:12 | -28.90261 | 28.03606 | 6550 ft | 227 kts | 219° |
| 2026-04-30 10:13 | -28.91484 | 28.02492 | 6546 ft | 223 kts | 225° |
| 2026-04-30 10:13 | -28.92667 | 28.01347 | 6539 ft | 224 kts | 225° |
| 2026-04-30 10:13 | -28.93863 | 28.00179 | 6546 ft | 228 kts | 225° |
| 2026-04-30 10:13 | -28.95070 | 27.99004 | 6535 ft | 228 kts | 225° |
| 2026-04-30 10:14 | -28.96314 | 27.97893 | 6530 ft | 227 kts | 213° |
| 2026-04-30 10:14 | -28.97796 | 27.97220 | 6620 ft | 230 kts | 199° |
| 2026-04-30 10:14 | -29.00894 | 27.96508 | 6856 ft | 225 kts | 186° |
| 2026-04-30 10:15 | -29.02419 | 27.96185 | 6969 ft | 221 kts | 196° |
| 2026-04-30 10:15 | -29.03846 | 27.95573 | 7088 ft | 218 kts | 210° |
| 2026-04-30 10:15 | -29.05124 | 27.94665 | 7164 ft | 215 kts | 217° |
| 2026-04-30 10:15 | -29.06335 | 27.93673 | 7253 ft | 214 kts | 220° |
| 2026-04-30 10:16 | -29.07487 | 27.92594 | 7352 ft | 213 kts | 224° |
| 2026-04-30 10:16 | -29.08627 | 27.91524 | 7447 ft | 212 kts | 223° |
| 2026-04-30 10:16 | -29.09776 | 27.90464 | 7547 ft | 212 kts | 223° |
| 2026-04-30 10:17 | -29.12081 | 27.88378 | 7773 ft | 209 kts | 223° |
| 2026-04-30 10:17 | -29.14351 | 27.86345 | 8029 ft | 206 kts | 224° |
| 2026-04-30 10:17 | -29.15476 | 27.85334 | 8092 ft | 207 kts | 225° |
| 2026-04-30 10:18 | -29.16611 | 27.84284 | 8063 ft | 213 kts | 225° |
| 2026-04-30 10:18 | -29.17779 | 27.83210 | 8052 ft | 216 kts | 225° |
| 2026-04-30 10:18 | -29.18960 | 27.82137 | 8061 ft | 218 kts | 224° |
| 2026-04-30 10:19 | -29.21367 | 27.79960 | 8037 ft | 225 kts | 224° |
| 2026-04-30 10:19 | -29.22593 | 27.78850 | 8046 ft | 224 kts | 224° |
| 2026-04-30 10:19 | -29.23815 | 27.77729 | 8049 ft | 226 kts | 224° |
| 2026-04-30 10:19 | -29.25061 | 27.76614 | 8049 ft | 228 kts | 224° |
| 2026-04-30 10:20 | -29.26312 | 27.75504 | 8018 ft | 226 kts | 224° |
| 2026-04-30 10:20 | -29.28742 | 27.73255 | 8043 ft | 222 kts | 223° |
| 2026-04-30 10:20 | -29.29952 | 27.72154 | 8041 ft | 223 kts | 222° |
| 2026-04-30 10:21 | -29.31171 | 27.71070 | 8040 ft | 221 kts | 222° |
| 2026-04-30 10:21 | -29.32388 | 27.69984 | 8044 ft | 223 kts | 222° |
| 2026-04-30 10:21 | -29.33614 | 27.68910 | 8025 ft | 219 kts | 222° |
| 2026-04-30 10:21 | -29.34808 | 27.67835 | 8051 ft | 219 kts | 223° |
| 2026-04-30 10:22 | -29.36006 | 27.66744 | 8050 ft | 221 kts | 223° |
| 2026-04-30 10:22 | -29.37212 | 27.65656 | 8044 ft | 221 kts | 223° |
| 2026-04-30 10:22 | -29.38423 | 27.64565 | 8048 ft | 222 kts | 223° |
| 2026-04-30 10:22 | -29.39646 | 27.63470 | 8044 ft | 223 kts | 223° |
| 2026-04-30 10:23 | -29.40857 | 27.62367 | 8045 ft | 223 kts | 223° |
| 2026-04-30 10:23 | -29.42083 | 27.61247 | 8040 ft | 225 kts | 222° |
| 2026-04-30 10:23 | -29.43312 | 27.60145 | 8038 ft | 225 kts | 222° |
| 2026-04-30 10:23 | -29.44554 | 27.59023 | 7915 ft | 229 kts | 222° |
| 2026-04-30 10:24 | -29.45808 | 27.57886 | 7780 ft | 231 kts | 219° |
| 2026-04-30 10:24 | -29.47281 | 27.57178 | 7582 ft | 237 kts | 193° |
| 2026-04-30 10:24 | -29.48869 | 27.56806 | 7683 ft | 226 kts | 194° |
| 2026-04-30 10:24 | -29.50372 | 27.56281 | 7423 ft | 225 kts | 208° |
| 2026-04-30 10:25 | -29.51610 | 27.55279 | 7493 ft | 210 kts | 229° |
| 2026-04-30 10:25 | -29.52418 | 27.53917 | 7428 ft | 207 kts | 251° |
| 2026-04-30 10:25 | -29.52782 | 27.52331 | 7367 ft | 204 kts | 259° |
| 2026-04-30 10:25 | -29.53127 | 27.50754 | 7316 ft | 202 kts | 262° |
| 2026-04-30 10:26 | -29.53024 | 27.49192 | 7357 ft | 196 kts | 292° |
| 2026-04-30 10:26 | -29.52264 | 27.47939 | 7383 ft | 192 kts | 322° |
| 2026-04-30 10:26 | -29.51118 | 27.47166 | 7362 ft | 192 kts | 335° |
| 2026-04-30 10:26 | -29.49923 | 27.46498 | 7345 ft | 191 kts | 335° |
| 2026-04-30 10:27 | -29.48631 | 27.46140 | 7184 ft | 197 kts | 5° |
| 2026-04-30 10:27 | -29.47376 | 27.46657 | 7254 ft | 187 kts | 34° |
| 2026-04-30 10:27 | -29.46428 | 27.47574 | 7490 ft | 172 kts | 40° |
| 2026-04-30 10:27 | -29.45702 | 27.48712 | 7247 ft | 189 kts | 67° |
| 2026-04-30 10:28 | -29.45644 | 27.50171 | 7149 ft | 178 kts | 106° |
| 2026-04-30 10:28 | -29.46403 | 27.51273 | 6696 ft | 182 kts | 148° |
| 2026-04-30 10:28 | -29.47200 | 27.52277 | 6279 ft | 172 kts | 107° |
| 2026-04-30 10:28 | -29.47058 | 27.53552 | 5859 ft | 163 kts | 54° |
| 2026-04-30 10:29 | -29.46248 | 27.54301 | 5584 ft | 128 kts | 28° |
| 2026-04-30 10:29 | -29.45550 | 27.54702 | 5497 ft | 103 kts | 23° |
| 2026-04-30 10:29 | -29.44866 | 27.55060 | 5554 ft | 111 kts | 30° |
| 2026-04-30 10:29 | -29.44180 | 27.55548 | 5557 ft | 120 kts | 20° |
| 2026-04-30 10:30 | -29.43367 | 27.55764 | 5637 ft | 123 kts | 12° |
| 2026-04-30 10:30 | -29.42504 | 27.55730 | 5596 ft | 134 kts | 341° |
| 2026-04-30 10:30 | -29.41716 | 27.55147 | 5555 ft | 132 kts | 299° |
| 2026-04-30 10:30 | -29.41834 | 27.54219 | 5646 ft | 125 kts | 219° |
| 2026-04-30 10:31 | -29.42671 | 27.53941 | 5722 ft | 127 kts | 187° |
| 2026-04-30 10:31 | -29.43559 | 27.53797 | 5700 ft | 136 kts | 185° |
| 2026-04-30 10:31 | -29.44483 | 27.53716 | 5835 ft | 125 kts | 188° |
| 2026-04-30 10:31 | -29.45325 | 27.53555 | 5924 ft | 127 kts | 187° |
| 2026-04-30 10:32 | -29.46205 | 27.53403 | 5978 ft | 129 kts | 185° |
| 2026-04-30 10:32 | -29.47110 | 27.53339 | 6038 ft | 129 kts | 180° |
| 2026-04-30 10:32 | -29.47952 | 27.53538 | 6103 ft | 126 kts | 139° |
| 2026-04-30 10:32 | -29.48068 | 27.54477 | 5939 ft | 136 kts | 56° |
| 2026-04-30 10:33 | -29.47539 | 27.55224 | 6295 ft | 112 kts | 43° |
| 2026-04-30 10:33 | -29.46776 | 27.55460 | 6368 ft | 117 kts | 353° |
| 2026-04-30 10:33 | -29.45901 | 27.55357 | 6182 ft | 139 kts | 4° |
| 2026-04-30 10:33 | -29.44902 | 27.55623 | 5903 ft | 143 kts | 15° |
| 2026-04-30 10:34 | -29.43975 | 27.55539 | 5993 ft | 133 kts | 338° |
| 2026-04-30 10:34 | -29.43122 | 27.55094 | 6000 ft | 136 kts | 335° |
| 2026-04-30 10:34 | -29.42262 | 27.54636 | 6012 ft | 137 kts | 335° |
| 2026-04-30 10:34 | -29.41380 | 27.54231 | 6016 ft | 137 kts | 353° |
| 2026-04-30 10:35 | -29.40484 | 27.54480 | 6018 ft | 135 kts | 37° |
| 2026-04-30 10:35 | -29.39868 | 27.55289 | 6040 ft | 140 kts | 54° |
| 2026-04-30 10:35 | -29.39234 | 27.56283 | 6057 ft | 168 kts | 54° |
| 2026-04-30 10:35 | -29.38502 | 27.57433 | 6029 ft | 189 kts | 50° |
| 2026-04-30 10:36 | -29.37437 | 27.58384 | 6017 ft | 201 kts | 29° |
| 2026-04-30 10:36 | -29.36096 | 27.58935 | 6019 ft | 209 kts | 12° |
| 2026-04-30 10:36 | -29.34623 | 27.59031 | 6022 ft | 215 kts | 358° |
| 2026-04-30 10:36 | -29.34358 | 27.59168 | 5983 ft | 72 kts | 22° |
| 2026-04-30 10:37 | -29.34349 | 27.59193 | 5950 ft | 80 kts | 147° |
| 2026-04-30 10:37 | -29.34313 | 27.59339 | 5685 ft | 95 kts | 76° |
| 2026-04-30 10:37 | -29.34307 | 27.59390 | 5602 ft | 0 kts | 78° |
| 2026-04-30 10:38 | -29.34311 | 27.59372 | 5602 ft | 0 kts | 78° |
| 2026-04-30 10:38 | -29.34307 | 27.59390 | 5602 ft | 0 kts | 78° |
| 2026-04-30 10:39 | -29.34151 | 27.59714 | 6164 ft | 147 kts | 57° |
| 2026-04-30 10:39 | -29.33550 | 27.60974 | 5932 ft | 177 kts | 60° |
| 2026-04-30 10:40 | -29.32958 | 27.61988 | 6924 ft | 141 kts | 48° |
| 2026-04-30 10:40 | -29.32129 | 27.62755 | 6987 ft | 173 kts | 23° |
| 2026-04-30 10:40 | -29.30887 | 27.62970 | 7093 ft | 185 kts | 349° |
| 2026-04-30 10:40 | -29.29867 | 27.62285 | 7606 ft | 166 kts | 306° |
| 2026-04-30 10:41 | -29.29672 | 27.60983 | 7451 ft | 187 kts | 257° |
| 2026-04-30 10:41 | -29.30591 | 27.59842 | 7350 ft | 207 kts | 205° |
| 2026-04-30 10:41 | -29.31931 | 27.59936 | 7501 ft | 197 kts | 150° |
| 2026-04-30 10:41 | -29.32697 | 27.61210 | 7379 ft | 206 kts | 96° |
| 2026-04-30 10:42 | -29.32480 | 27.62746 | 7847 ft | 182 kts | 54° |
| 2026-04-30 10:42 | -29.31486 | 27.63527 | 7988 ft | 177 kts | 6° |
| 2026-04-30 10:42 | -29.30354 | 27.63246 | 8232 ft | 159 kts | 318° |
| 2026-04-30 10:42 | -29.29958 | 27.62135 | 8192 ft | 161 kts | 264° |
| 2026-04-30 10:43 | -29.30494 | 27.61002 | 8077 ft | 164 kts | 241° |
| 2026-04-30 10:43 | -29.31124 | 27.59915 | 7963 ft | 166 kts | 242° |
| 2026-04-30 10:43 | -29.31944 | 27.58985 | 7760 ft | 173 kts | 210° |
| 2026-04-30 10:43 | -29.33141 | 27.58823 | 7567 ft | 174 kts | 172° |
| 2026-04-30 10:44 | -29.34286 | 27.59118 | 7448 ft | 159 kts | 183° |
| 2026-04-30 10:44 | -29.35271 | 27.58758 | 7246 ft | 143 kts | 205° |
| 2026-04-30 10:44 | -29.36225 | 27.58411 | 6995 ft | 142 kts | 198° |
| 2026-04-30 10:44 | -29.37095 | 27.58130 | 6742 ft | 116 kts | 197° |
| 2026-04-30 10:45 | -29.37809 | 27.57895 | 6634 ft | 100 kts | 195° |
| 2026-04-30 10:45 | -29.38491 | 27.57675 | 6537 ft | 108 kts | 194° |
| 2026-04-30 10:45 | -29.39249 | 27.57433 | 6382 ft | 118 kts | 193° |
| 2026-04-30 10:45 | -29.40061 | 27.57177 | 6180 ft | 123 kts | 193° |
| 2026-04-30 10:46 | -29.40888 | 27.56919 | 6009 ft | 122 kts | 193° |
| 2026-04-30 10:46 | -29.41691 | 27.56667 | 5876 ft | 118 kts | 193° |
| 2026-04-30 10:46 | -29.42478 | 27.56423 | 5726 ft | 117 kts | 194° |
| 2026-04-30 10:46 | -29.43257 | 27.56179 | 5581 ft | 115 kts | 194° |
| 2026-04-30 10:47 | -29.44016 | 27.55945 | 5470 ft | 109 kts | 195° |
| 2026-04-30 10:47 | -29.44707 | 27.55728 | 5443 ft | 94 kts | 194° |
| 2026-04-30 10:47 | -29.45220 | 27.55563 | 5440 ft | 60 kts | 195° |
| 2026-04-30 10:47 | -29.45468 | 27.55493 | 5441 ft | 20 kts | 162° |
| 2026-04-30 10:48 | -29.45515 | 27.55605 | 5441 ft | 14 kts | 104° |
| 2026-04-30 10:48 | -29.45524 | 27.55646 | 5441 ft | 0 kts | 104° |
| 2026-04-30 10:48 | -29.45526 | 27.55652 | 5441 ft | 6 kts | 119° |
| 2026-04-30 10:48 | -29.45666 | 27.55625 | 5441 ft | 31 kts | 195° |
| 2026-04-30 10:49 | -29.45814 | 27.55586 | 5442 ft | 10 kts | 150° |
| 2026-04-30 10:49 | -29.45847 | 27.55688 | 5442 ft | 20 kts | 105° |
| 2026-04-30 10:49 | -29.45859 | 27.55783 | 5441 ft | 7 kts | 11° |
| 2026-04-30 10:49 | -29.45834 | 27.55791 | 5441 ft | 0 kts | 16° |